sensor_id;sensor_type;location;lat;lon;timestamp;pressure;altitude;pressure_sealevel;temperature;humidity
56074;BME280;41950;55.840;37.442;2023-12-14T00:02:22;100268.06;;;-10.86;86.86
56074;BME280;41950;55.840;37.442;2023-12-14T00:04:48;100211.44;;;-11.16;86.75
56074;BME280;41950;55.840;37.442;2023-12-14T00:07:15;100234.81;;;-11.05;86.23
56074;BME280;41950;55.840;37.442;2023-12-14T00:09:41;100264.66;;;-10.86;86.38
56074;BME280;41950;55.840;37.442;2023-12-14T00:12:08;100269.16;;;-10.82;86.27
56074;BME280;41950;55.840;37.442;2023-12-14T00:14:34;100249.63;;;-10.86;86.20
56074;BME280;41950;55.840;37.442;2023-12-14T00:17:01;100265.13;;;-10.80;86.17
56074;BME280;41950;55.840;37.442;2023-12-14T00:19:28;100185.56;;;-11.27;86.15
56074;BME280;41950;55.840;37.442;2023-12-14T00:21:54;100240.66;;;-10.95;85.94
56074;BME280;41950;55.840;37.442;2023-12-14T00:24:23;100233.19;;;-11.05;85.63
56074;BME280;41950;55.840;37.442;2023-12-14T00:26:48;100236.38;;;-10.96;85.97
56074;BME280;41950;55.840;37.442;2023-12-14T00:29:14;100219.31;;;-11.11;85.95
56074;BME280;41950;55.840;37.442;2023-12-14T00:31:40;100245.41;;;-10.98;85.77
56074;BME280;41950;55.840;37.442;2023-12-14T00:34:06;100206.66;;;-11.13;85.83
56074;BME280;41950;55.840;37.442;2023-12-14T00:36:32;100203.09;;;-11.05;85.30
56074;BME280;41950;55.840;37.442;2023-12-14T00:38:58;100210.84;;;-11.02;85.74
56074;BME280;41950;55.840;37.442;2023-12-14T00:41:24;100199.91;;;-11.14;85.80
56074;BME280;41950;55.840;37.442;2023-12-14T00:43:49;100215.75;;;-11.03;85.63
56074;BME280;41950;55.840;37.442;2023-12-14T00:46:15;100248.34;;;-10.81;85.77
56074;BME280;41950;55.840;37.442;2023-12-14T00:48:41;100259.91;;;-10.72;85.59
56074;BME280;41950;55.840;37.442;2023-12-14T00:51:06;100215.84;;;-11.02;85.54
56074;BME280;41950;55.840;37.442;2023-12-14T00:53:32;100242.56;;;-10.80;85.26
56074;BME280;41950;55.840;37.442;2023-12-14T00:55:58;100230.88;;;-10.92;85.48
56074;BME280;41950;55.840;37.442;2023-12-14T00:58:24;100259.91;;;-10.72;85.25
56074;BME280;41950;55.840;37.442;2023-12-14T01:00:49;100258.50;;;-10.68;85.18
56074;BME280;41950;55.840;37.442;2023-12-14T01:03:16;100263.78;;;-10.65;85.18
56074;BME280;41950;55.840;37.442;2023-12-14T01:05:43;100257.78;;;-10.67;85.25
56074;BME280;41950;55.840;37.442;2023-12-14T01:08:10;100244.41;;;-10.78;85.27
56074;BME280;41950;55.840;37.442;2023-12-14T01:10:35;100262.09;;;-10.76;85.48
56074;BME280;41950;55.840;37.442;2023-12-14T01:13:02;100190.94;;;-11.22;85.07
56074;BME280;41950;55.840;37.442;2023-12-14T01:15:29;100254.00;;;-10.84;85.64
56074;BME280;41950;55.840;37.442;2023-12-14T01:17:59;100199.38;;;-11.10;85.50
56074;BME280;41950;55.840;37.442;2023-12-14T01:20:24;100220.66;;;-11.05;85.23
56074;BME280;41950;55.840;37.442;2023-12-14T01:22:50;100160.34;;;-11.40;84.83
56074;BME280;41950;55.840;37.442;2023-12-14T01:25:16;100250.50;;;-10.86;85.43
56074;BME280;41950;55.840;37.442;2023-12-14T01:27:43;100231.13;;;-10.99;85.36
56074;BME280;41950;55.840;37.442;2023-12-14T01:30:09;100259.13;;;-10.82;85.27
56074;BME280;41950;55.840;37.442;2023-12-14T01:32:35;100248.88;;;-10.85;85.25
56074;BME280;41950;55.840;37.442;2023-12-14T01:35:01;100207.59;;;-11.01;85.21
56074;BME280;41950;55.840;37.442;2023-12-14T01:37:27;100189.88;;;-11.14;85.21
56074;BME280;41950;55.840;37.442;2023-12-14T01:39:54;100242.22;;;-10.85;85.40
56074;BME280;41950;55.840;37.442;2023-12-14T01:42:22;100175.75;;;-11.24;85.76
56074;BME280;41950;55.840;37.442;2023-12-14T01:44:49;100253.13;;;-10.84;85.33
56074;BME280;41950;55.840;37.442;2023-12-14T01:47:15;100230.31;;;-10.87;85.49
56074;BME280;41950;55.840;37.442;2023-12-14T01:49:41;100205.94;;;-11.00;85.46
56074;BME280;41950;55.840;37.442;2023-12-14T01:52:07;100258.41;;;-10.70;85.15
56074;BME280;41950;55.840;37.442;2023-12-14T01:54:34;100224.56;;;-10.86;85.47
56074;BME280;41950;55.840;37.442;2023-12-14T01:56:59;100192.09;;;-11.07;85.63
56074;BME280;41950;55.840;37.442;2023-12-14T01:59:27;100247.47;;;-10.82;85.54
56074;BME280;41950;55.840;37.442;2023-12-14T02:01:54;100217.94;;;-10.96;84.82
56074;BME280;41950;55.840;37.442;2023-12-14T02:04:23;100166.22;;;-11.17;85.06
56074;BME280;41950;55.840;37.442;2023-12-14T02:06:50;100219.66;;;-10.85;85.48
56074;BME280;41950;55.840;37.442;2023-12-14T02:09:16;100187.06;;;-11.07;85.79
56074;BME280;41950;55.840;37.442;2023-12-14T02:11:42;100164.38;;;-11.20;85.68
56074;BME280;41950;55.840;37.442;2023-12-14T02:14:11;100147.19;;;-11.37;86.29
56074;BME280;41950;55.840;37.442;2023-12-14T02:16:38;100254.09;;;-10.82;86.68
56074;BME280;41950;55.840;37.442;2023-12-14T02:19:05;100249.09;;;-10.82;86.37
56074;BME280;41950;55.840;37.442;2023-12-14T02:21:30;100189.34;;;-11.10;86.29
56074;BME280;41950;55.840;37.442;2023-12-14T02:23:56;100223.03;;;-10.84;86.08
56074;BME280;41950;55.840;37.442;2023-12-14T02:26:22;100250.00;;;-10.70;86.11
56074;BME280;41950;55.840;37.442;2023-12-14T02:28:48;100079.97;;;-11.65;85.68
56074;BME280;41950;55.840;37.442;2023-12-14T02:31:14;100249.00;;;-10.72;86.04
56074;BME280;41950;55.840;37.442;2023-12-14T02:33:39;100246.28;;;-10.75;86.24
56074;BME280;41950;55.840;37.442;2023-12-14T02:36:05;100084.34;;;-11.62;86.05
56074;BME280;41950;55.840;37.442;2023-12-14T02:38:31;100175.38;;;-11.18;85.70
56074;BME280;41950;55.840;37.442;2023-12-14T02:40:57;100185.09;;;-11.11;85.54
56074;BME280;41950;55.840;37.442;2023-12-14T02:43:23;100255.56;;;-10.74;85.95
56074;BME280;41950;55.840;37.442;2023-12-14T02:45:49;100253.16;;;-10.73;85.73
56074;BME280;41950;55.840;37.442;2023-12-14T02:48:15;100199.84;;;-11.04;85.83
56074;BME280;41950;55.840;37.442;2023-12-14T02:50:41;100163.66;;;-11.29;85.70
56074;BME280;41950;55.840;37.442;2023-12-14T02:53:06;100253.34;;;-10.81;85.13
56074;BME280;41950;55.840;37.442;2023-12-14T02:55:32;100252.13;;;-10.86;86.68
56074;BME280;41950;55.840;37.442;2023-12-14T02:57:58;100207.19;;;-11.17;86.77
56074;BME280;41950;55.840;37.442;2023-12-14T03:00:24;100058.19;;;-12.09;86.61
56074;BME280;41950;55.840;37.442;2023-12-14T03:02:50;100131.91;;;-11.62;86.62
56074;BME280;41950;55.840;37.442;2023-12-14T03:05:16;100233.00;;;-10.96;86.77
56074;BME280;41950;55.840;37.442;2023-12-14T03:07:41;100199.16;;;-11.13;86.22
56074;BME280;41950;55.840;37.442;2023-12-14T03:10:08;100218.31;;;-10.92;86.53
56074;BME280;41950;55.840;37.442;2023-12-14T03:12:34;100225.84;;;-10.92;86.60
56074;BME280;41950;55.840;37.442;2023-12-14T03:14:59;100235.69;;;-10.83;86.33
56074;BME280;41950;55.840;37.442;2023-12-14T03:17:25;100192.72;;;-11.09;86.44
56074;BME280;41950;55.840;37.442;2023-12-14T03:19:51;100220.06;;;-10.90;86.60
56074;BME280;41950;55.840;37.442;2023-12-14T03:22:17;100215.06;;;-11.12;86.60
56074;BME280;41950;55.840;37.442;2023-12-14T03:24:42;100165.81;;;-11.34;86.80
56074;BME280;41950;55.840;37.442;2023-12-14T03:27:08;100180.19;;;-11.31;86.99
56074;BME280;41950;55.840;37.442;2023-12-14T03:29:34;100261.75;;;-10.81;86.95
56074;BME280;41950;55.840;37.442;2023-12-14T03:32:00;100141.97;;;-11.50;86.79
56074;BME280;41950;55.840;37.442;2023-12-14T03:34:26;100209.09;;;-11.03;86.81
56074;BME280;41950;55.840;37.442;2023-12-14T03:36:52;100204.72;;;-11.05;86.60
56074;BME280;41950;55.840;37.442;2023-12-14T03:39:18;100254.56;;;-10.76;86.57
56074;BME280;41950;55.840;37.442;2023-12-14T03:41:44;100260.34;;;-10.77;86.46
56074;BME280;41950;55.840;37.442;2023-12-14T03:44:10;100246.16;;;-10.77;86.70
56074;BME280;41950;55.840;37.442;2023-12-14T03:46:36;100216.97;;;-10.98;86.32
56074;BME280;41950;55.840;37.442;2023-12-14T03:49:02;100250.72;;;-10.83;86.52
56074;BME280;41950;55.840;37.442;2023-12-14T03:51:29;100224.75;;;-10.95;86.06
56074;BME280;41950;55.840;37.442;2023-12-14T03:53:55;100222.81;;;-10.87;85.93
56074;BME280;41950;55.840;37.442;2023-12-14T03:56:21;100193.50;;;-11.10;85.30
56074;BME280;41950;55.840;37.442;2023-12-14T03:58:47;100250.75;;;-10.71;85.75
56074;BME280;41950;55.840;37.442;2023-12-14T04:01:20;100045.72;;;-11.88;85.55
56074;BME280;41950;55.840;37.442;2023-12-14T04:03:47;100092.59;;;-11.63;85.76
56074;BME280;41950;55.840;37.442;2023-12-14T04:06:14;100198.44;;;-11.00;85.42
56074;BME280;41950;55.840;37.442;2023-12-14T04:08:42;100248.13;;;-10.73;85.74
56074;BME280;41950;55.840;37.442;2023-12-14T04:11:08;100158.38;;;-11.22;85.80
56074;BME280;41950;55.840;37.442;2023-12-14T04:13:35;100152.22;;;-11.26;85.66
56074;BME280;41950;55.840;37.442;2023-12-14T04:16:00;100247.03;;;-10.76;85.92
56074;BME280;41950;55.840;37.442;2023-12-14T04:18:26;100188.41;;;-11.00;85.93
56074;BME280;41950;55.840;37.442;2023-12-14T04:20:52;100197.03;;;-10.97;85.83
56074;BME280;41950;55.840;37.442;2023-12-14T04:23:19;100156.44;;;-11.14;85.52
56074;BME280;41950;55.840;37.442;2023-12-14T04:25:45;100218.34;;;-10.80;84.67
56074;BME280;41950;55.840;37.442;2023-12-14T04:28:11;100213.00;;;-10.84;85.66
56074;BME280;41950;55.840;37.442;2023-12-14T04:30:36;100179.38;;;-10.98;85.62
56074;BME280;41950;55.840;37.442;2023-12-14T04:33:02;100212.69;;;-10.77;85.48
56074;BME280;41950;55.840;37.442;2023-12-14T04:35:28;100153.16;;;-11.13;85.23
56074;BME280;41950;55.840;37.442;2023-12-14T04:37:54;100175.66;;;-11.03;85.41
56074;BME280;41950;55.840;37.442;2023-12-14T04:40:20;100244.81;;;-10.62;85.50
56074;BME280;41950;55.840;37.442;2023-12-14T04:42:45;100090.91;;;-11.52;85.33
56074;BME280;41950;55.840;37.442;2023-12-14T04:45:11;100215.22;;;-10.77;85.45
56074;BME280;41950;55.840;37.442;2023-12-14T04:47:38;100225.47;;;-10.74;85.39
56074;BME280;41950;55.840;37.442;2023-12-14T04:50:05;100241.03;;;-10.56;85.33
56074;BME280;41950;55.840;37.442;2023-12-14T04:52:31;100207.22;;;-10.83;85.23
56074;BME280;41950;55.840;37.442;2023-12-14T04:54:56;100098.16;;;-11.45;84.76
56074;BME280;41950;55.840;37.442;2023-12-14T04:57:22;100237.94;;;-10.64;85.02
56074;BME280;41950;55.840;37.442;2023-12-14T04:59:48;100128.47;;;-11.31;85.42
56074;BME280;41950;55.840;37.442;2023-12-14T05:02:13;100179.91;;;-11.02;85.59
56074;BME280;41950;55.840;37.442;2023-12-14T05:04:39;100155.88;;;-11.22;85.58
56074;BME280;41950;55.840;37.442;2023-12-14T05:07:05;100231.47;;;-10.72;85.25
56074;BME280;41950;55.840;37.442;2023-12-14T05:09:31;100241.72;;;-10.69;85.24
56074;BME280;41950;55.840;37.442;2023-12-14T05:11:58;100238.53;;;-10.78;85.36
56074;BME280;41950;55.840;37.442;2023-12-14T05:14:23;100251.47;;;-10.62;85.26
56074;BME280;41950;55.840;37.442;2023-12-14T05:16:50;100257.91;;;-10.66;85.58
56074;BME280;41950;55.840;37.442;2023-12-14T05:19:15;100218.31;;;-10.92;85.53
56074;BME280;41950;55.840;37.442;2023-12-14T05:21:41;100245.47;;;-10.64;85.46
56074;BME280;41950;55.840;37.442;2023-12-14T05:24:07;100251.06;;;-10.56;84.90
56074;BME280;41950;55.840;37.442;2023-12-14T05:26:33;100230.94;;;-10.68;85.05
56074;BME280;41950;55.840;37.442;2023-12-14T05:28:58;100220.66;;;-10.71;85.00
56074;BME280;41950;55.840;37.442;2023-12-14T05:31:24;100182.25;;;-10.94;84.54
56074;BME280;41950;55.840;37.442;2023-12-14T05:33:50;100241.97;;;-10.66;84.74
56074;BME280;41950;55.840;37.442;2023-12-14T05:36:16;100264.28;;;-10.47;85.00
56074;BME280;41950;55.840;37.442;2023-12-14T05:38:43;100258.59;;;-10.45;84.47
56074;BME280;41950;55.840;37.442;2023-12-14T05:41:09;100266.34;;;-10.42;84.30
56074;BME280;41950;55.840;37.442;2023-12-14T05:43:35;100195.91;;;-10.78;84.51
56074;BME280;41950;55.840;37.442;2023-12-14T05:46:02;100253.94;;;-10.40;84.37
56074;BME280;41950;55.840;37.442;2023-12-14T05:48:29;100168.25;;;-11.02;84.65
56074;BME280;41950;55.840;37.442;2023-12-14T05:50:56;100216.53;;;-10.71;84.08
56074;BME280;41950;55.840;37.442;2023-12-14T05:53:22;100255.97;;;-10.46;84.15
56074;BME280;41950;55.840;37.442;2023-12-14T05:55:48;100258.72;;;-10.43;84.47
56074;BME280;41950;55.840;37.442;2023-12-14T05:58:13;100168.47;;;-10.99;84.30
56074;BME280;41950;55.840;37.442;2023-12-14T06:00:40;100159.97;;;-11.01;83.97
56074;BME280;41950;55.840;37.442;2023-12-14T06:03:06;100237.75;;;-10.55;84.31
56074;BME280;41950;55.840;37.442;2023-12-14T06:05:32;100257.63;;;-10.47;83.57
56074;BME280;41950;55.840;37.442;2023-12-14T06:07:58;100229.25;;;-10.57;83.92
56074;BME280;41950;55.840;37.442;2023-12-14T06:10:23;100249.56;;;-10.43;83.45
56074;BME280;41950;55.840;37.442;2023-12-14T06:12:49;100256.81;;;-10.36;83.53
56074;BME280;41950;55.840;37.442;2023-12-14T06:15:15;100214.41;;;-10.66;83.40
56074;BME280;41950;55.840;37.442;2023-12-14T06:17:41;100266.19;;;-10.33;83.18
56074;BME280;41950;55.840;37.442;2023-12-14T06:20:08;100267.50;;;-10.26;83.42
56074;BME280;41950;55.840;37.442;2023-12-14T06:22:38;100263.91;;;-10.30;83.57
56074;BME280;41950;55.840;37.442;2023-12-14T06:25:04;100263.34;;;-10.38;83.44
56074;BME280;41950;55.840;37.442;2023-12-14T06:27:32;100224.66;;;-10.51;83.37
56074;BME280;41950;55.840;37.442;2023-12-14T06:29:58;100195.81;;;-10.68;83.72
56074;BME280;41950;55.840;37.442;2023-12-14T06:32:24;100208.31;;;-10.58;83.00
56074;BME280;41950;55.840;37.442;2023-12-14T06:34:50;100257.47;;;-10.26;83.76
56074;BME280;41950;55.840;37.442;2023-12-14T06:37:16;100132.94;;;-11.05;83.41
56074;BME280;41950;55.840;37.442;2023-12-14T06:39:42;100225.00;;;-10.47;83.21
56074;BME280;41950;55.840;37.442;2023-12-14T06:42:08;100210.69;;;-10.59;83.11
56074;BME280;41950;55.840;37.442;2023-12-14T06:44:34;100223.03;;;-10.51;83.42
56074;BME280;41950;55.840;37.442;2023-12-14T06:47:00;100260.97;;;-10.24;83.37
56074;BME280;41950;55.840;37.442;2023-12-14T06:49:26;100264.22;;;-10.14;82.75
56074;BME280;41950;55.840;37.442;2023-12-14T06:51:52;100225.94;;;-10.35;82.74
56074;BME280;41950;55.840;37.442;2023-12-14T06:54:18;100247.22;;;-10.30;82.82
56074;BME280;41950;55.840;37.442;2023-12-14T06:56:45;100048.75;;;-11.25;82.50
56074;BME280;41950;55.840;37.442;2023-12-14T06:59:11;100196.16;;;-10.30;82.72
56074;BME280;41950;55.840;37.442;2023-12-14T07:01:36;100265.13;;;-9.90;82.29
56074;BME280;41950;55.840;37.442;2023-12-14T07:04:02;100254.66;;;-9.96;82.60
56074;BME280;41950;55.840;37.442;2023-12-14T07:06:29;100268.31;;;-9.81;82.65
56074;BME280;41950;55.840;37.442;2023-12-14T07:08:55;100272.91;;;-9.75;82.01
56074;BME280;41950;55.840;37.442;2023-12-14T07:11:22;100238.06;;;-9.94;81.88
56074;BME280;41950;55.840;37.442;2023-12-14T07:13:48;100257.72;;;-9.77;81.85
56074;BME280;41950;55.840;37.442;2023-12-14T07:16:14;100261.66;;;-9.80;81.13
56074;BME280;41950;55.840;37.442;2023-12-14T07:18:41;100215.47;;;-10.06;81.99
56074;BME280;41950;55.840;37.442;2023-12-14T07:21:08;100238.94;;;-9.93;81.80
56074;BME280;41950;55.840;37.442;2023-12-14T07:23:34;100226.47;;;-9.92;81.68
56074;BME280;41950;55.840;37.442;2023-12-14T07:26:01;100214.47;;;-9.96;81.98
56074;BME280;41950;55.840;37.442;2023-12-14T07:28:27;100231.19;;;-9.85;81.66
56074;BME280;41950;55.840;37.442;2023-12-14T07:30:53;100280.56;;;-9.50;81.20
56074;BME280;41950;55.840;37.442;2023-12-14T07:33:19;100240.25;;;-9.75;81.79
56074;BME280;41950;55.840;37.442;2023-12-14T07:35:45;100232.28;;;-9.93;81.81
56074;BME280;41950;55.840;37.442;2023-12-14T07:38:11;100180.88;;;-10.33;82.10
56074;BME280;41950;55.840;37.442;2023-12-14T07:40:37;100277.50;;;-9.81;81.98
56074;BME280;41950;55.840;37.442;2023-12-14T07:43:04;100229.31;;;-10.22;81.55
56074;BME280;41950;55.840;37.442;2023-12-14T07:45:30;100285.88;;;-9.92;82.13
56074;BME280;41950;55.840;37.442;2023-12-14T07:47:56;100232.09;;;-10.41;82.29
56074;BME280;41950;55.840;37.442;2023-12-14T07:50:21;100266.38;;;-10.18;82.86
56074;BME280;41950;55.840;37.442;2023-12-14T07:52:47;100300.50;;;-9.99;82.61
56074;BME280;41950;55.840;37.442;2023-12-14T07:55:13;100227.78;;;-10.32;82.54
56074;BME280;41950;55.840;37.442;2023-12-14T07:57:39;100306.19;;;-9.89;82.44
56074;BME280;41950;55.840;37.442;2023-12-14T08:00:06;100270.59;;;-10.07;82.83
56074;BME280;41950;55.840;37.442;2023-12-14T08:02:36;100306.84;;;-9.92;82.17
56074;BME280;41950;55.840;37.442;2023-12-14T08:05:02;100309.13;;;-9.95;82.80
56074;BME280;41950;55.840;37.442;2023-12-14T08:07:27;100283.97;;;-10.18;82.72
56074;BME280;41950;55.840;37.442;2023-12-14T08:09:55;100264.44;;;-10.34;83.04
56074;BME280;41950;55.840;37.442;2023-12-14T08:12:21;100305.63;;;-10.09;83.37
56074;BME280;41950;55.840;37.442;2023-12-14T08:14:47;100300.38;;;-10.12;82.92
56074;BME280;41950;55.840;37.442;2023-12-14T08:17:13;100281.25;;;-10.21;83.19
56074;BME280;41950;55.840;37.442;2023-12-14T08:19:39;100294.09;;;-10.17;83.37
56074;BME280;41950;55.840;37.442;2023-12-14T08:22:05;100217.66;;;-10.67;83.60
56074;BME280;41950;55.840;37.442;2023-12-14T08:24:30;100265.09;;;-10.37;83.38
56074;BME280;41950;55.840;37.442;2023-12-14T08:26:56;100279.19;;;-10.27;83.98
56074;BME280;41950;55.840;37.442;2023-12-14T08:29:22;100267.50;;;-10.26;83.27
56074;BME280;41950;55.840;37.442;2023-12-14T08:31:48;100301.91;;;-10.02;83.41
56074;BME280;41950;55.840;37.442;2023-12-14T08:34:13;100308.78;;;-10.00;83.81
56074;BME280;41950;55.840;37.442;2023-12-14T08:36:39;100249.94;;;-10.26;83.63
56074;BME280;41950;55.840;37.442;2023-12-14T08:39:05;100288.25;;;-10.06;83.51
56074;BME280;41950;55.840;37.442;2023-12-14T08:41:32;100285.88;;;-10.04;83.70
56074;BME280;41950;55.840;37.442;2023-12-14T08:43:58;100254.94;;;-10.15;83.51
56074;BME280;41950;55.840;37.442;2023-12-14T08:46:23;100270.03;;;-10.03;83.35
56074;BME280;41950;55.840;37.442;2023-12-14T08:48:49;100315.38;;;-9.67;83.46
56074;BME280;41950;55.840;37.442;2023-12-14T08:51:14;100239.91;;;-10.03;82.82
56074;BME280;41950;55.840;37.442;2023-12-14T08:53:40;100300.53;;;-9.63;82.78
56074;BME280;41950;55.840;37.442;2023-12-14T08:56:08;100274.97;;;-9.70;82.58
56074;BME280;41950;55.840;37.442;2023-12-14T08:58:34;100243.84;;;-9.72;82.56
56074;BME280;41950;55.840;37.442;2023-12-14T09:00:59;100260.56;;;-9.49;82.42
56074;BME280;41950;55.840;37.442;2023-12-14T09:03:25;100303.72;;;-9.31;82.29
56074;BME280;41950;55.840;37.442;2023-12-14T09:05:52;100296.19;;;-9.31;82.44
56074;BME280;41950;55.840;37.442;2023-12-14T09:08:17;100236.75;;;-9.66;82.62
56074;BME280;41950;55.840;37.442;2023-12-14T09:10:43;100247.78;;;-9.63;82.70
56074;BME280;41950;55.840;37.442;2023-12-14T09:13:10;100263.28;;;-9.46;82.71
56074;BME280;41950;55.840;37.442;2023-12-14T09:15:36;100263.75;;;-9.51;82.88
56074;BME280;41950;55.840;37.442;2023-12-14T09:18:02;100221.03;;;-9.63;82.36
56074;BME280;41950;55.840;37.442;2023-12-14T09:20:28;100247.56;;;-9.43;82.13
56074;BME280;41950;55.840;37.442;2023-12-14T09:22:53;100265.38;;;-9.28;82.01
56074;BME280;41950;55.840;37.442;2023-12-14T09:25:19;100238.50;;;-9.53;81.73
56074;BME280;41950;55.840;37.442;2023-12-14T09:27:45;100270.28;;;-9.42;82.27
56074;BME280;41950;55.840;37.442;2023-12-14T09:30:11;100263.97;;;-9.48;82.51
56074;BME280;41950;55.840;37.442;2023-12-14T09:32:38;100233.47;;;-9.64;82.46
56074;BME280;41950;55.840;37.442;2023-12-14T09:35:06;100281.75;;;-9.45;82.98
56074;BME280;41950;55.840;37.442;2023-12-14T09:37:32;100285.38;;;-9.53;82.95
56074;BME280;41950;55.840;37.442;2023-12-14T09:39:58;100286.81;;;-9.57;82.86
56074;BME280;41950;55.840;37.442;2023-12-14T09:42:23;100298.59;;;-9.56;82.82
56074;BME280;41950;55.840;37.442;2023-12-14T09:44:50;100275.22;;;-9.78;82.61
56074;BME280;41950;55.840;37.442;2023-12-14T09:47:16;100309.06;;;-9.61;83.26
56074;BME280;41950;55.840;37.442;2023-12-14T09:49:42;100259.13;;;-9.92;83.42
56074;BME280;41950;55.840;37.442;2023-12-14T09:52:10;100268.53;;;-9.78;82.64
56074;BME280;41950;55.840;37.442;2023-12-14T09:54:35;100234.56;;;-9.96;82.75
56074;BME280;41950;55.840;37.442;2023-12-14T09:57:01;100314.31;;;-9.47;82.94
56074;BME280;41950;55.840;37.442;2023-12-14T09:59:27;100282.00;;;-9.54;82.36
56074;BME280;41950;55.840;37.442;2023-12-14T10:01:52;100259.25;;;-9.67;82.22
56074;BME280;41950;55.840;37.442;2023-12-14T10:04:19;100234.78;;;-9.93;82.43
56074;BME280;41950;55.840;37.442;2023-12-14T10:06:47;100225.19;;;-10.10;81.92
56074;BME280;41950;55.840;37.442;2023-12-14T10:09:13;100318.91;;;-9.53;82.45
56074;BME280;41950;55.840;37.442;2023-12-14T10:11:42;100310.72;;;-9.50;82.42
56074;BME280;41950;55.840;37.442;2023-12-14T10:14:22;100306.47;;;-9.51;82.25
56074;BME280;41950;55.840;37.442;2023-12-14T10:16:49;100265.94;;;-9.79;81.93
56074;BME280;41950;55.840;37.442;2023-12-14T10:19:17;100276.50;;;-9.72;82.38
56074;BME280;41950;55.840;37.442;2023-12-14T10:21:43;100187.06;;;-10.16;82.19
56074;BME280;41950;55.840;37.442;2023-12-14T10:24:09;100237.44;;;-9.80;81.93
56074;BME280;41950;55.840;37.442;2023-12-14T10:26:35;100228.91;;;-9.70;81.85
56074;BME280;41950;55.840;37.442;2023-12-14T10:29:01;100285.47;;;-9.28;81.83
56074;BME280;41950;55.840;37.442;2023-12-14T10:31:37;100249.66;;;-9.49;80.78
56074;BME280;41950;55.840;37.442;2023-12-14T10:34:04;100188.38;;;-9.98;80.85
56074;BME280;41950;55.840;37.442;2023-12-14T10:36:31;100279.13;;;-9.35;81.04
56074;BME280;41950;55.840;37.442;2023-12-14T10:38:58;100171.47;;;-9.89;81.17
56074;BME280;41950;55.840;37.442;2023-12-14T10:41:25;100239.81;;;-9.46;81.20
56074;BME280;41950;55.840;37.442;2023-12-14T10:43:54;100237.16;;;-9.36;80.89
56074;BME280;41950;55.840;37.442;2023-12-14T10:46:20;100249.53;;;-9.27;81.04
56074;BME280;41950;55.840;37.442;2023-12-14T10:48:51;100271.56;;;-9.12;80.92
56074;BME280;41950;55.840;37.442;2023-12-14T10:51:21;100254.25;;;-9.07;80.55
56074;BME280;41950;55.840;37.442;2023-12-14T10:53:49;100261.38;;;-9.01;80.66
56074;BME280;41950;55.840;37.442;2023-12-14T10:56:17;100260.94;;;-8.96;80.69
56074;BME280;41950;55.840;37.442;2023-12-14T10:58:48;100218.34;;;-9.18;80.82
56074;BME280;41950;55.840;37.442;2023-12-14T11:01:18;100196.19;;;-9.35;80.64
56074;BME280;41950;55.840;37.442;2023-12-14T11:03:45;100248.91;;;-9.00;80.96
56074;BME280;41950;55.840;37.442;2023-12-14T11:06:31;100246.06;;;-9.05;80.55
56074;BME280;41950;55.840;37.442;2023-12-14T11:09:04;99993.69;;;-10.54;80.96
56074;BME280;41950;55.840;37.442;2023-12-14T11:14:12;100203.50;;;-9.38;81.43
56074;BME280;41950;55.840;37.442;2023-12-14T11:16:39;100221.22;;;-9.25;81.45
56074;BME280;41950;55.840;37.442;2023-12-14T11:24:34;100235.38;;;-9.02;80.71
56074;BME280;41950;55.840;37.442;2023-12-14T11:27:04;100230.25;;;-9.03;81.12
56074;BME280;41950;55.840;37.442;2023-12-14T11:29:30;100236.25;;;-9.13;81.38
56074;BME280;41950;55.840;37.442;2023-12-14T11:31:55;100206.69;;;-9.29;80.78
56074;BME280;41950;55.840;37.442;2023-12-14T11:34:24;100191.94;;;-9.36;80.70
56074;BME280;41950;55.840;37.442;2023-12-14T11:36:50;100221.63;;;-9.19;79.67
56074;BME280;41950;55.840;37.442;2023-12-14T11:39:15;100200.59;;;-9.44;81.51
56074;BME280;41950;55.840;37.442;2023-12-14T11:41:41;100195.91;;;-9.51;81.13
56074;BME280;41950;55.840;37.442;2023-12-14T11:44:07;100229.53;;;-9.38;81.72
56074;BME280;41950;55.840;37.442;2023-12-14T11:46:32;100237.94;;;-9.37;81.38
56074;BME280;41950;55.840;37.442;2023-12-14T11:48:58;100225.03;;;-9.30;81.35
56074;BME280;41950;55.840;37.442;2023-12-14T11:51:24;100169.50;;;-9.58;81.49
56074;BME280;41950;55.840;37.442;2023-12-14T11:53:55;100237.47;;;-9.20;81.75
56074;BME280;41950;55.840;37.442;2023-12-14T11:56:21;100213.78;;;-9.35;81.89
56074;BME280;41950;55.840;37.442;2023-12-14T11:58:49;100245.88;;;-9.19;81.58
56074;BME280;41950;55.840;37.442;2023-12-14T12:01:19;100231.72;;;-9.30;81.70
56074;BME280;41950;55.840;37.442;2023-12-14T12:03:50;100250.25;;;-9.17;81.51
56074;BME280;41950;55.840;37.442;2023-12-14T12:08:46;100178.22;;;-9.53;81.62
56074;BME280;41950;55.840;37.442;2023-12-14T12:11:16;100248.94;;;-9.12;82.15
56074;BME280;41950;55.840;37.442;2023-12-14T12:13:42;100248.38;;;-9.08;81.73
56074;BME280;41950;55.840;37.442;2023-12-14T12:16:08;100251.97;;;-9.04;81.56
56074;BME280;41950;55.840;37.442;2023-12-14T12:18:33;100215.75;;;-9.31;82.02
56074;BME280;41950;55.840;37.442;2023-12-14T12:20:59;100186.41;;;-9.55;82.51
56074;BME280;41950;55.840;37.442;2023-12-14T12:23:29;100207.16;;;-9.46;82.68
56074;BME280;41950;55.840;37.442;2023-12-14T12:25:55;100225.38;;;-9.37;82.82
56074;BME280;41950;55.840;37.442;2023-12-14T12:28:21;100248.09;;;-9.24;82.69
56074;BME280;41950;55.840;37.442;2023-12-14T12:30:47;100254.66;;;-9.26;83.02
56074;BME280;41950;55.840;37.442;2023-12-14T12:33:13;100181.50;;;-9.66;82.85
56074;BME280;41950;55.840;37.442;2023-12-14T12:35:39;100211.63;;;-9.42;82.93
56074;BME280;41950;55.840;37.442;2023-12-14T12:38:05;100172.75;;;-9.71;83.26
56074;BME280;41950;55.840;37.442;2023-12-14T12:40:31;100243.50;;;-9.29;83.00